Fairgrounds, Louisiana
Current Conditions -  °F | °C
As of 1:56 AM on Monday 22 Dec 2014 (Local Time) from KSHV Reporting Station
Haze Haze  
Wind Chill: 45°   Ceiling: 400
Heat Index: 49°   Visibility: 6mi
Dew Point: 48°   Wind: 9mph
Humidity: 97%   Direction: 150°SSE
Pressure: 29.81"   Gusts: NA
Location:  32.4646°N, 93.8137°W
Report Text: KSHV 220756Z 15008KT 6SM BR OVC004 09/09 A2981 RMK AO2 SLP092 T00940089 $
Loading
Personal Weather Stations






























Interactive Weather Map New forecast layout! Learn more

10-Day Weather Forecast

Advertisements
Track Severe Weather on mobile